Map

Track Data

SID SEASON NUMBER BASIN SUBBASIN NAME ISO_TIME NATURE LAT LON WMO_WIND WMO_PRES WMO_AGENCY TRACK_TYPE DIST2LAND LANDFALL IFLAG USA_AGENCY USA_ATCF_ID USA_LAT USA_LON USA_RECORD USA_STATUS USA_WIND USA_PRES USA_SSHS USA_R34_NE USA_R34_SE USA_R34_SW USA_R34_NW USA_R50_NE USA_R50_SE USA_R50_SW USA_R50_NW USA_R64_NE USA_R64_SE USA_R64_SW USA_R64_NW USA_POCI USA_ROCI USA_RMW USA_EYE TOKYO_LAT TOKYO_LON TOKYO_GRADE TOKYO_WIND TOKYO_PRES TOKYO_R50_DIR TOKYO_R50_LONG TOKYO_R50_SHORT TOKYO_R30_DIR TOKYO_R30_LONG TOKYO_R30_SHORT TOKYO_LAND CMA_LAT CMA_LON CMA_CAT CMA_WIND CMA_PRES HKO_LAT HKO_LON HKO_CAT HKO_WIND HKO_PRES NEWDELHI_LAT NEWDELHI_LON NEWDELHI_GRADE NEWDELHI_WIND NEWDELHI_PRES NEWDELHI_CI NEWDELHI_DP NEWDELHI_POCI REUNION_LAT REUNION_LON REUNION_TYPE REUNION_WIND REUNION_PRES REUNION_TNUM REUNION_CI REUNION_RMW REUNION_R34_NE REUNION_R34_SE REUNION_R34_SW REUNION_R34_NW REUNION_R50_NE REUNION_R50_SE REUNION_R50_SW REUNION_R50_NW REUNION_R64_NE REUNION_R64_SE REUNION_R64_SW REUNION_R64_NW BOM_LAT BOM_LON BOM_TYPE BOM_WIND BOM_PRES BOM_TNUM BOM_CI BOM_RMW BOM_R34_NE BOM_R34_SE BOM_R34_SW BOM_R34_NW BOM_R50_NE BOM_R50_SE BOM_R50_SW BOM_R50_NW BOM_R64_NE BOM_R64_SE BOM_R64_SW BOM_R64_NW BOM_ROCI BOM_POCI BOM_EYE BOM_POS_METHOD BOM_PRES_METHOD NADI_LAT NADI_LON NADI_CAT NADI_WIND NADI_PRES WELLINGTON_LAT WELLINGTON_LON WELLINGTON_WIND WELLINGTON_PRES DS824_LAT DS824_LON DS824_STAGE DS824_WIND DS824_PRES TD9636_LAT TD9636_LON TD9636_STAGE TD9636_WIND TD9636_PRES TD9635_LAT TD9635_LON TD9635_WIND TD9635_PRES TD9635_ROCI NEUMANN_LAT NEUMANN_LON NEUMANN_CLASS NEUMANN_WIND NEUMANN_PRES MLC_LAT MLC_LON MLC_CLASS MLC_WIND MLC_PRES USA_GUST BOM_GUST BOM_GUST_PER REUNION_GUST REUNION_GUST_PER USA_SEAHGT USA_SEARAD_NE USA_SEARAD_SE USA_SEARAD_SW USA_SEARAD_NW STORM_SPEED STORM_DIR
1931345S06101 1932 60 SI WA NOT_NAMED 1931-12-11 00:00:00 TS -6.30000 101.200 main 275 275 _________O____ -1 -6.30000 101.200 TC 25 6 197
1931345S06101 1932 60 SI WA NOT_NAMED 1931-12-11 03:00:00 TS -6.60000 101.103 main 308 308 _________P____ -1 -6.60000 101.103 TC 25 6 198
1931345S06101 1932 60 SI WA NOT_NAMED 1931-12-11 06:00:00 TS -6.90000 101.000 main 341 341 _________O____ -1 -6.90000 101.000 TC 25 6 199
1931345S06101 1932 60 SI WA NOT_NAMED 1931-12-11 09:00:00 TS -7.20000 100.893 main 374 374 _________P____ -1 -7.20000 100.893 TC 25 6 198
1931345S06101 1932 60 SI WA NOT_NAMED 1931-12-11 12:00:00 TS -7.50000 100.800 main 408 408 _________O____ -1 -7.50000 100.800 TC 25 6 195
1931345S06101 1932 60 SI WA NOT_NAMED 1931-12-11 15:00:00 TS -7.80000 100.735 main 442 442 _________P____ -1 -7.80000 100.735 TC 25 6 189
1931345S06101 1932 60 SI WA NOT_NAMED 1931-12-11 18:00:00 TS -8.10000 100.700 main 468 468 _________O____ -1 -8.10000 100.700 TC 25 6 186
1931345S06101 1932 60 SI WA NOT_NAMED 1931-12-11 21:00:00 TS -8.38500 100.685 main 495 495 _________P____ -1 -8.38500 100.685 TC 25 6 179
1931345S06101 1932 60 SI WA NOT_NAMED 1931-12-12 00:00:00 TS -8.70000 100.700 main 522 522 _________O____ -1 -8.70000 100.700 TC 25 7 175
1931345S06101 1932 60 SI WA NOT_NAMED 1931-12-12 03:00:00 TS -9.09250 100.735 main 558 554 _________P____ -1 -9.09250 100.735 TC 25 8 173
1931345S06101 1932 60 SI WA NOT_NAMED 1931-12-12 06:00:00 TS -9.50000 100.800 main 571 571 _________O____ -1 -9.50000 100.800 TC 25 8 169
1931345S06101 1932 60 SI WA NOT_NAMED 1931-12-12 09:00:00 TS -9.85749 100.885 main 587 587 _________P____ -1 -9.85749 100.885 TC 25 7 164
1931345S06101 1932 60 SI WA NOT_NAMED 1931-12-12 12:00:00 TS -10.2000 101.000 main 598 598 _________O____ -1 -10.2000 101.000 TC 25 7 161
1931345S06101 1932 60 SI WA NOT_NAMED 1931-12-12 15:00:00 TS -10.5575 101.135 main 620 612 _________P____ -1 -10.5575 101.135 TC 25 8 157
1931345S06101 1932 60 SI WA NOT_NAMED 1931-12-12 18:00:00 TS -10.9000 101.300 main 628 628 _________O____ -1 -10.9000 101.300 TC 25 7 153
1931345S06101 1932 60 SI WA NOT_NAMED 1931-12-12 21:00:00 TS -11.1999 101.463 main 638 638 _________P____ -1 -11.1999 101.463 TC 25 7 147
1931345S06101 1932 60 SI WA NOT_NAMED 1931-12-13 00:00:00 TS -11.5000 101.700 main 651 651 _________O____ -1 -11.5000 101.700 TC 25 9 138
1931345S06101 1932 60 SI WA NOT_NAMED 1931-12-13 03:00:00 TS -11.8500 102.070 main 664 659 _________P____ -1 -11.8500 102.070 TC 25 11 132
1931345S06101 1932 60 SI WA NOT_NAMED 1931-12-13 06:00:00 TS -12.2000 102.500 main 673 673 _________O____ -1 -12.2000 102.500 TC 25 10 129
1931345S06101 1932 60 SI WA NOT_NAMED 1931-12-13 09:00:00 TS -12.5074 102.893 main 686 685 _________P____ -1 -12.5074 102.893 TC 25 10 128
1931345S06101 1932 60 SI WA NOT_NAMED 1931-12-13 12:00:00 TS -12.8000 103.300 main 693 688 _________O____ -1 -12.8000 103.300 TC 25 10 126
1931345S06101 1932 60 SI WA NOT_NAMED 1931-12-13 15:00:00 TS -13.0999 103.735 main 703 699 _________P____ -1 -13.0999 103.735 TC 25 11 124
1931345S06101 1932 60 SI WA NOT_NAMED 1931-12-13 18:00:00 TS -13.4000 104.200 main 713 710 _________O____ -1 -13.4000 104.200 TC 25 11 123
1931345S06101 1932 60 SI WA NOT_NAMED 1931-12-13 21:00:00 TS -13.7002 104.692 main 729 729 _________P____ -1 -13.7002 104.692 TC 25 11 122
1931345S06101 1932 60 SI WA NOT_NAMED 1931-12-14 00:00:00 TS -14.0000 105.200 main 750 _________O____ -1 -14.0000 105.200 TC 25 12 121

About IBTrACS Database

This database is a web-friendly format of International Best Track Archive for Climate Stewardship (IBTrACS), a global best track data archive curated by NOAA dating back to 1842.

Updated: 2021-11-26